sensor_id;sensor_type;location;lat;lon;timestamp;P1;durP1;ratioP1;P2;durP2;ratioP2
21743;SDS011;11034;48.556;9.342;2022-11-27T00:01:19;36.72;;;17.50;;
21743;SDS011;11034;48.556;9.342;2022-11-27T00:03:48;35.88;;;16.50;;
21743;SDS011;11034;48.556;9.342;2022-11-27T00:06:18;36.28;;;16.63;;
21743;SDS011;11034;48.556;9.342;2022-11-27T00:08:47;37.30;;;17.30;;
21743;SDS011;11034;48.556;9.342;2022-11-27T00:11:15;35.70;;;16.30;;
21743;SDS011;11034;48.556;9.342;2022-11-27T00:13:45;47.03;;;17.98;;
21743;SDS011;11034;48.556;9.342;2022-11-27T00:16:13;38.33;;;17.17;;
21743;SDS011;11034;48.556;9.342;2022-11-27T00:18:43;36.70;;;17.38;;
21743;SDS011;11034;48.556;9.342;2022-11-27T00:21:13;31.30;;;14.95;;
21743;SDS011;11034;48.556;9.342;2022-11-27T00:23:42;28.30;;;15.20;;
21743;SDS011;11034;48.556;9.342;2022-11-27T00:26:13;34.25;;;16.25;;
21743;SDS011;11034;48.556;9.342;2022-11-27T00:28:44;35.03;;;16.00;;
21743;SDS011;11034;48.556;9.342;2022-11-27T00:31:13;33.08;;;15.90;;
21743;SDS011;11034;48.556;9.342;2022-11-27T00:33:44;33.75;;;15.88;;
21743;SDS011;11034;48.556;9.342;2022-11-27T00:36:12;30.40;;;16.40;;
21743;SDS011;11034;48.556;9.342;2022-11-27T00:38:41;38.20;;;16.55;;
21743;SDS011;11034;48.556;9.342;2022-11-27T00:41:10;36.50;;;18.50;;
21743;SDS011;11034;48.556;9.342;2022-11-27T00:43:41;33.00;;;16.20;;
21743;SDS011;11034;48.556;9.342;2022-11-27T00:46:11;36.00;;;15.73;;
21743;SDS011;11034;48.556;9.342;2022-11-27T00:48:39;34.22;;;15.80;;
21743;SDS011;11034;48.556;9.342;2022-11-27T00:51:09;31.13;;;15.57;;
21743;SDS011;11034;48.556;9.342;2022-11-27T00:53:39;36.78;;;15.82;;
21743;SDS011;11034;48.556;9.342;2022-11-27T00:56:08;33.70;;;16.23;;
21743;SDS011;11034;48.556;9.342;2022-11-27T00:58:40;33.47;;;16.05;;
21743;SDS011;11034;48.556;9.342;2022-11-27T01:01:12;40.90;;;18.13;;
21743;SDS011;11034;48.556;9.342;2022-11-27T01:03:42;33.90;;;15.23;;
21743;SDS011;11034;48.556;9.342;2022-11-27T01:06:12;35.75;;;15.13;;
21743;SDS011;11034;48.556;9.342;2022-11-27T01:08:41;31.25;;;14.00;;
21743;SDS011;11034;48.556;9.342;2022-11-27T01:11:11;25.23;;;12.15;;
21743;SDS011;11034;48.556;9.342;2022-11-27T01:13:41;26.02;;;10.77;;
21743;SDS011;11034;48.556;9.342;2022-11-27T01:16:09;22.67;;;10.00;;
21743;SDS011;11034;48.556;9.342;2022-11-27T01:18:40;21.15;;;8.77;;
21743;SDS011;11034;48.556;9.342;2022-11-27T01:21:10;16.27;;;8.15;;
21743;SDS011;11034;48.556;9.342;2022-11-27T01:23:39;18.85;;;7.68;;
21743;SDS011;11034;48.556;9.342;2022-11-27T01:26:08;22.38;;;7.43;;
21743;SDS011;11034;48.556;9.342;2022-11-27T01:28:37;12.88;;;6.30;;
21743;SDS011;11034;48.556;9.342;2022-11-27T01:31:06;16.40;;;6.93;;
21743;SDS011;11034;48.556;9.342;2022-11-27T01:33:35;12.48;;;6.15;;
21743;SDS011;11034;48.556;9.342;2022-11-27T01:36:04;16.33;;;6.40;;
21743;SDS011;11034;48.556;9.342;2022-11-27T01:38:35;16.08;;;6.43;;
21743;SDS011;11034;48.556;9.342;2022-11-27T01:41:05;13.20;;;6.30;;
21743;SDS011;11034;48.556;9.342;2022-11-27T01:43:35;13.10;;;5.97;;
21743;SDS011;11034;48.556;9.342;2022-11-27T01:46:05;13.60;;;5.78;;
21743;SDS011;11034;48.556;9.342;2022-11-27T01:48:46;12.23;;;5.72;;
21743;SDS011;11034;48.556;9.342;2022-11-27T01:51:14;14.95;;;6.05;;
21743;SDS011;11034;48.556;9.342;2022-11-27T01:53:44;14.38;;;6.03;;
21743;SDS011;11034;48.556;9.342;2022-11-27T01:56:12;19.23;;;6.82;;
21743;SDS011;11034;48.556;9.342;2022-11-27T01:58:41;11.93;;;6.65;;
21743;SDS011;11034;48.556;9.342;2022-11-27T02:01:09;14.25;;;6.40;;
21743;SDS011;11034;48.556;9.342;2022-11-27T02:03:37;15.00;;;6.43;;
21743;SDS011;11034;48.556;9.342;2022-11-27T02:06:06;13.50;;;5.80;;
21743;SDS011;11034;48.556;9.342;2022-11-27T02:08:35;15.95;;;6.25;;
21743;SDS011;11034;48.556;9.342;2022-11-27T02:11:06;11.63;;;5.82;;
21743;SDS011;11034;48.556;9.342;2022-11-27T02:13:41;14.88;;;6.60;;
21743;SDS011;11034;48.556;9.342;2022-11-27T02:16:16;14.38;;;6.53;;
21743;SDS011;11034;48.556;9.342;2022-11-27T02:18:53;17.45;;;6.10;;
21743;SDS011;11034;48.556;9.342;2022-11-27T02:21:26;14.82;;;6.40;;
21743;SDS011;11034;48.556;9.342;2022-11-27T02:30:00;13.63;;;5.80;;
21743;SDS011;11034;48.556;9.342;2022-11-27T02:32:31;10.82;;;5.68;;
21743;SDS011;11034;48.556;9.342;2022-11-27T02:35:05;10.70;;;5.25;;
21743;SDS011;11034;48.556;9.342;2022-11-27T02:37:42;14.82;;;6.15;;
21743;SDS011;11034;48.556;9.342;2022-11-27T02:40:15;14.10;;;6.15;;
21743;SDS011;11034;48.556;9.342;2022-11-27T02:42:51;13.10;;;5.57;;
21743;SDS011;11034;48.556;9.342;2022-11-27T02:45:24;13.80;;;6.00;;
21743;SDS011;11034;48.556;9.342;2022-11-27T02:47:56;16.10;;;6.10;;
21743;SDS011;11034;48.556;9.342;2022-11-27T02:50:25;13.18;;;5.53;;
21743;SDS011;11034;48.556;9.342;2022-11-27T02:52:56;15.57;;;5.97;;
21743;SDS011;11034;48.556;9.342;2022-11-27T02:55:30;14.00;;;5.88;;
21743;SDS011;11034;48.556;9.342;2022-11-27T02:58:01;13.95;;;6.18;;
21743;SDS011;11034;48.556;9.342;2022-11-27T03:00:32;10.90;;;5.88;;
21743;SDS011;11034;48.556;9.342;2022-11-27T03:03:04;15.70;;;6.53;;
21743;SDS011;11034;48.556;9.342;2022-11-27T03:05:36;14.60;;;7.30;;
21743;SDS011;11034;48.556;9.342;2022-11-27T03:08:09;18.73;;;6.05;;
21743;SDS011;11034;48.556;9.342;2022-11-27T03:10:46;11.88;;;5.45;;
21743;SDS011;11034;48.556;9.342;2022-11-27T03:13:18;8.80;;;5.03;;
21743;SDS011;11034;48.556;9.342;2022-11-27T03:15:49;13.98;;;5.22;;
21743;SDS011;11034;48.556;9.342;2022-11-27T03:18:27;9.30;;;4.57;;
21743;SDS011;11034;48.556;9.342;2022-11-27T03:21:03;8.98;;;4.80;;
21743;SDS011;11034;48.556;9.342;2022-11-27T03:23:35;9.85;;;5.03;;
21743;SDS011;11034;48.556;9.342;2022-11-27T03:26:04;9.52;;;5.38;;
21743;SDS011;11034;48.556;9.342;2022-11-27T03:28:32;15.80;;;5.05;;
21743;SDS011;11034;48.556;9.342;2022-11-27T03:31:02;11.13;;;4.57;;
21743;SDS011;11034;48.556;9.342;2022-11-27T03:33:31;11.27;;;5.10;;
21743;SDS011;11034;48.556;9.342;2022-11-27T03:35:59;12.00;;;5.47;;
21743;SDS011;11034;48.556;9.342;2022-11-27T03:38:27;14.73;;;5.70;;
21743;SDS011;11034;48.556;9.342;2022-11-27T03:40:57;11.77;;;6.03;;
21743;SDS011;11034;48.556;9.342;2022-11-27T03:43:31;13.75;;;7.15;;
21743;SDS011;11034;48.556;9.342;2022-11-27T03:46:07;13.70;;;7.40;;
21743;SDS011;11034;48.556;9.342;2022-11-27T03:48:39;18.00;;;8.20;;
21743;SDS011;11034;48.556;9.342;2022-11-27T03:51:15;12.38;;;5.95;;
21743;SDS011;11034;48.556;9.342;2022-11-27T03:53:50;13.23;;;6.40;;
21743;SDS011;11034;48.556;9.342;2022-11-27T03:56:26;12.10;;;5.65;;
21743;SDS011;11034;48.556;9.342;2022-11-27T03:59:02;11.75;;;5.60;;
21743;SDS011;11034;48.556;9.342;2022-11-27T04:01:34;12.75;;;6.25;;
21743;SDS011;11034;48.556;9.342;2022-11-27T04:04:03;10.32;;;5.68;;
21743;SDS011;11034;48.556;9.342;2022-11-27T04:06:32;14.82;;;7.53;;
21743;SDS011;11034;48.556;9.342;2022-11-27T04:09:00;12.13;;;6.50;;
21743;SDS011;11034;48.556;9.342;2022-11-27T04:11:28;13.75;;;6.70;;
21743;SDS011;11034;48.556;9.342;2022-11-27T04:13:56;14.70;;;6.82;;
21743;SDS011;11034;48.556;9.342;2022-11-27T04:16:24;9.80;;;5.40;;
21743;SDS011;11034;48.556;9.342;2022-11-27T04:18:53;11.05;;;6.07;;
21743;SDS011;11034;48.556;9.342;2022-11-27T04:21:21;14.70;;;6.28;;
21743;SDS011;11034;48.556;9.342;2022-11-27T04:23:49;12.35;;;6.15;;
21743;SDS011;11034;48.556;9.342;2022-11-27T04:26:17;9.07;;;5.05;;
21743;SDS011;11034;48.556;9.342;2022-11-27T04:28:45;12.68;;;5.90;;
21743;SDS011;11034;48.556;9.342;2022-11-27T04:31:13;8.00;;;4.15;;
21743;SDS011;11034;48.556;9.342;2022-11-27T04:33:41;11.20;;;5.38;;
21743;SDS011;11034;48.556;9.342;2022-11-27T04:36:11;10.35;;;4.97;;
21743;SDS011;11034;48.556;9.342;2022-11-27T04:38:39;9.60;;;4.70;;
21743;SDS011;11034;48.556;9.342;2022-11-27T04:41:07;11.85;;;5.60;;
21743;SDS011;11034;48.556;9.342;2022-11-27T04:43:35;7.47;;;4.10;;
21743;SDS011;11034;48.556;9.342;2022-11-27T04:46:03;8.43;;;4.32;;
21743;SDS011;11034;48.556;9.342;2022-11-27T04:48:31;8.75;;;4.53;;
21743;SDS011;11034;48.556;9.342;2022-11-27T04:50:59;7.75;;;4.60;;
21743;SDS011;11034;48.556;9.342;2022-11-27T04:53:28;7.30;;;4.38;;
21743;SDS011;11034;48.556;9.342;2022-11-27T04:55:56;10.02;;;5.13;;
21743;SDS011;11034;48.556;9.342;2022-11-27T04:58:24;9.57;;;4.60;;
21743;SDS011;11034;48.556;9.342;2022-11-27T05:00:52;8.20;;;5.05;;
21743;SDS011;11034;48.556;9.342;2022-11-27T05:03:20;9.77;;;4.97;;
21743;SDS011;11034;48.556;9.342;2022-11-27T05:05:53;11.25;;;6.15;;
21743;SDS011;11034;48.556;9.342;2022-11-27T05:08:22;15.15;;;9.32;;
21743;SDS011;11034;48.556;9.342;2022-11-27T05:10:58;16.48;;;10.15;;
21743;SDS011;11034;48.556;9.342;2022-11-27T05:13:27;15.90;;;8.52;;
21743;SDS011;11034;48.556;9.342;2022-11-27T05:15:56;13.82;;;8.07;;
21743;SDS011;11034;48.556;9.342;2022-11-27T05:18:24;11.80;;;7.53;;
21743;SDS011;11034;48.556;9.342;2022-11-27T05:20:55;14.55;;;7.13;;
21743;SDS011;11034;48.556;9.342;2022-11-27T05:23:24;11.13;;;6.95;;
21743;SDS011;11034;48.556;9.342;2022-11-27T05:25:53;9.82;;;5.22;;
21743;SDS011;11034;48.556;9.342;2022-11-27T05:28:23;9.82;;;5.53;;
21743;SDS011;11034;48.556;9.342;2022-11-27T05:30:52;10.60;;;5.60;;
21743;SDS011;11034;48.556;9.342;2022-11-27T05:33:23;8.48;;;5.20;;
21743;SDS011;11034;48.556;9.342;2022-11-27T05:35:51;11.43;;;5.35;;
21743;SDS011;11034;48.556;9.342;2022-11-27T05:38:18;10.65;;;5.60;;
21743;SDS011;11034;48.556;9.342;2022-11-27T05:40:47;9.88;;;5.38;;
21743;SDS011;11034;48.556;9.342;2022-11-27T05:43:15;9.35;;;5.93;;
21743;SDS011;11034;48.556;9.342;2022-11-27T05:45:45;12.95;;;8.00;;
21743;SDS011;11034;48.556;9.342;2022-11-27T05:48:12;13.77;;;7.65;;
21743;SDS011;11034;48.556;9.342;2022-11-27T05:50:40;13.20;;;8.75;;
21743;SDS011;11034;48.556;9.342;2022-11-27T05:53:08;12.55;;;8.40;;
21743;SDS011;11034;48.556;9.342;2022-11-27T05:55:36;15.18;;;8.23;;
21743;SDS011;11034;48.556;9.342;2022-11-27T05:58:04;12.77;;;8.48;;
21743;SDS011;11034;48.556;9.342;2022-11-27T06:00:32;12.52;;;7.10;;
21743;SDS011;11034;48.556;9.342;2022-11-27T06:03:02;11.88;;;7.85;;
21743;SDS011;11034;48.556;9.342;2022-11-27T06:05:30;11.93;;;8.13;;
21743;SDS011;11034;48.556;9.342;2022-11-27T06:07:58;21.98;;;11.52;;
21743;SDS011;11034;48.556;9.342;2022-11-27T06:10:28;20.02;;;10.60;;
21743;SDS011;11034;48.556;9.342;2022-11-27T06:13:00;18.13;;;9.77;;
21743;SDS011;11034;48.556;9.342;2022-11-27T06:15:30;19.35;;;10.63;;
21743;SDS011;11034;48.556;9.342;2022-11-27T06:18:02;17.95;;;8.63;;
21743;SDS011;11034;48.556;9.342;2022-11-27T06:20:33;9.50;;;5.68;;
21743;SDS011;11034;48.556;9.342;2022-11-27T06:23:07;9.88;;;5.50;;
21743;SDS011;11034;48.556;9.342;2022-11-27T06:25:35;8.80;;;4.25;;
21743;SDS011;11034;48.556;9.342;2022-11-27T06:28:03;9.98;;;4.05;;
21743;SDS011;11034;48.556;9.342;2022-11-27T06:30:31;7.25;;;4.32;;
21743;SDS011;11034;48.556;9.342;2022-11-27T06:32:59;7.53;;;3.47;;
21743;SDS011;11034;48.556;9.342;2022-11-27T06:35:28;7.93;;;3.90;;
21743;SDS011;11034;48.556;9.342;2022-11-27T06:37:57;8.25;;;3.60;;
21743;SDS011;11034;48.556;9.342;2022-11-27T06:40:25;6.28;;;3.70;;
21743;SDS011;11034;48.556;9.342;2022-11-27T06:42:54;6.03;;;3.22;;
21743;SDS011;11034;48.556;9.342;2022-11-27T06:45:23;10.32;;;3.50;;
21743;SDS011;11034;48.556;9.342;2022-11-27T06:47:51;9.25;;;3.50;;
21743;SDS011;11034;48.556;9.342;2022-11-27T06:50:19;6.60;;;3.70;;
21743;SDS011;11034;48.556;9.342;2022-11-27T06:52:48;9.45;;;3.65;;
21743;SDS011;11034;48.556;9.342;2022-11-27T06:55:16;6.07;;;3.10;;
21743;SDS011;11034;48.556;9.342;2022-11-27T06:57:46;7.72;;;3.67;;
21743;SDS011;11034;48.556;9.342;2022-11-27T07:00:16;11.27;;;6.47;;
21743;SDS011;11034;48.556;9.342;2022-11-27T07:02:45;6.15;;;4.30;;
21743;SDS011;11034;48.556;9.342;2022-11-27T07:05:13;7.68;;;3.47;;
21743;SDS011;11034;48.556;9.342;2022-11-27T07:07:41;6.38;;;3.50;;
21743;SDS011;11034;48.556;9.342;2022-11-27T07:10:11;8.18;;;3.17;;
21743;SDS011;11034;48.556;9.342;2022-11-27T07:12:39;7.20;;;2.63;;
21743;SDS011;11034;48.556;9.342;2022-11-27T07:15:07;5.55;;;3.20;;
21743;SDS011;11034;48.556;9.342;2022-11-27T07:17:35;7.75;;;3.47;;
21743;SDS011;11034;48.556;9.342;2022-11-27T07:20:04;3.83;;;2.80;;
21743;SDS011;11034;48.556;9.342;2022-11-27T07:22:34;6.15;;;3.40;;
21743;SDS011;11034;48.556;9.342;2022-11-27T07:25:02;7.13;;;3.72;;
21743;SDS011;11034;48.556;9.342;2022-11-27T07:27:32;9.48;;;6.20;;
21743;SDS011;11034;48.556;9.342;2022-11-27T07:30:00;22.73;;;12.25;;
21743;SDS011;11034;48.556;9.342;2022-11-27T07:32:28;40.53;;;21.90;;
21743;SDS011;11034;48.556;9.342;2022-11-27T07:34:57;81.00;;;41.17;;
21743;SDS011;11034;48.556;9.342;2022-11-27T07:37:25;21.33;;;11.07;;
21743;SDS011;11034;48.556;9.342;2022-11-27T07:39:57;22.52;;;12.73;;
21743;SDS011;11034;48.556;9.342;2022-11-27T07:42:28;15.35;;;9.00;;
21743;SDS011;11034;48.556;9.342;2022-11-27T07:45:05;11.25;;;6.40;;
21743;SDS011;11034;48.556;9.342;2022-11-27T07:47:34;5.97;;;3.67;;
21743;SDS011;11034;48.556;9.342;2022-11-27T07:50:02;4.88;;;3.30;;
21743;SDS011;11034;48.556;9.342;2022-11-27T07:52:32;15.95;;;7.90;;
21743;SDS011;11034;48.556;9.342;2022-11-27T07:55:07;11.25;;;5.90;;
21743;SDS011;11034;48.556;9.342;2022-11-27T07:57:35;12.40;;;5.97;;
21743;SDS011;11034;48.556;9.342;2022-11-27T08:00:05;10.55;;;5.38;;
21743;SDS011;11034;48.556;9.342;2022-11-27T08:02:34;17.42;;;9.18;;
21743;SDS011;11034;48.556;9.342;2022-11-27T08:05:02;19.70;;;11.38;;
21743;SDS011;11034;48.556;9.342;2022-11-27T08:07:37;20.35;;;12.13;;
21743;SDS011;11034;48.556;9.342;2022-11-27T08:10:06;19.55;;;11.77;;
21743;SDS011;11034;48.556;9.342;2022-11-27T08:12:34;18.85;;;10.73;;
21743;SDS011;11034;48.556;9.342;2022-11-27T08:15:02;14.13;;;8.50;;
21743;SDS011;11034;48.556;9.342;2022-11-27T08:17:33;16.00;;;9.35;;
21743;SDS011;11034;48.556;9.342;2022-11-27T08:20:01;23.27;;;15.25;;
21743;SDS011;11034;48.556;9.342;2022-11-27T08:22:30;26.55;;;16.13;;
21743;SDS011;11034;48.556;9.342;2022-11-27T08:24:58;24.30;;;14.98;;
21743;SDS011;11034;48.556;9.342;2022-11-27T08:27:26;23.33;;;15.43;;
21743;SDS011;11034;48.556;9.342;2022-11-27T08:29:54;21.15;;;14.43;;
21743;SDS011;11034;48.556;9.342;2022-11-27T08:32:23;20.42;;;12.52;;
21743;SDS011;11034;48.556;9.342;2022-11-27T08:34:51;18.08;;;11.18;;
21743;SDS011;11034;48.556;9.342;2022-11-27T08:37:19;11.50;;;6.15;;
21743;SDS011;11034;48.556;9.342;2022-11-27T08:39:48;11.98;;;6.95;;
21743;SDS011;11034;48.556;9.342;2022-11-27T08:42:16;9.35;;;6.57;;
21743;SDS011;11034;48.556;9.342;2022-11-27T08:44:44;48.55;;;29.67;;
21743;SDS011;11034;48.556;9.342;2022-11-27T08:47:12;34.17;;;22.00;;
21743;SDS011;11034;48.556;9.342;2022-11-27T08:49:43;36.42;;;22.05;;
21743;SDS011;11034;48.556;9.342;2022-11-27T08:52:11;25.45;;;14.57;;
21743;SDS011;11034;48.556;9.342;2022-11-27T08:54:40;17.35;;;10.90;;
21743;SDS011;11034;48.556;9.342;2022-11-27T08:57:08;13.77;;;8.18;;
21743;SDS011;11034;48.556;9.342;2022-11-27T08:59:36;14.82;;;9.02;;
21743;SDS011;11034;48.556;9.342;2022-11-27T09:02:04;15.15;;;8.45;;
21743;SDS011;11034;48.556;9.342;2022-11-27T09:04:32;21.80;;;14.88;;
21743;SDS011;11034;48.556;9.342;2022-11-27T09:07:02;26.92;;;19.20;;
21743;SDS011;11034;48.556;9.342;2022-11-27T09:09:30;29.15;;;19.42;;
21743;SDS011;11034;48.556;9.342;2022-11-27T09:11:58;35.67;;;22.42;;
21743;SDS011;11034;48.556;9.342;2022-11-27T09:14:26;44.60;;;30.20;;
21743;SDS011;11034;48.556;9.342;2022-11-27T09:16:54;50.72;;;32.65;;
21743;SDS011;11034;48.556;9.342;2022-11-27T09:19:22;35.72;;;21.75;;
21743;SDS011;11034;48.556;9.342;2022-11-27T09:21:51;40.92;;;22.92;;
21743;SDS011;11034;48.556;9.342;2022-11-27T09:24:22;62.20;;;30.35;;
21743;SDS011;11034;48.556;9.342;2022-11-27T09:26:50;26.25;;;15.57;;
21743;SDS011;11034;48.556;9.342;2022-11-27T09:29:20;54.22;;;26.27;;
21743;SDS011;11034;48.556;9.342;2022-11-27T09:31:48;19.40;;;13.30;;
21743;SDS011;11034;48.556;9.342;2022-11-27T09:34:16;15.45;;;10.70;;
21743;SDS011;11034;48.556;9.342;2022-11-27T09:36:44;27.92;;;14.98;;
21743;SDS011;11034;48.556;9.342;2022-11-27T09:39:12;34.40;;;18.65;;
21743;SDS011;11034;48.556;9.342;2022-11-27T09:41:44;17.58;;;12.32;;
21743;SDS011;11034;48.556;9.342;2022-11-27T09:44:24;13.60;;;9.82;;
21743;SDS011;11034;48.556;9.342;2022-11-27T09:46:58;14.10;;;10.07;;
21743;SDS011;11034;48.556;9.342;2022-11-27T09:49:32;14.80;;;9.25;;
21743;SDS011;11034;48.556;9.342;2022-11-27T09:52:09;12.18;;;9.07;;
21743;SDS011;11034;48.556;9.342;2022-11-27T09:54:42;14.43;;;10.23;;
21743;SDS011;11034;48.556;9.342;2022-11-27T09:57:26;9.27;;;7.03;;
21743;SDS011;11034;48.556;9.342;2022-11-27T09:59:58;7.88;;;6.50;;
21743;SDS011;11034;48.556;9.342;2022-11-27T10:02:32;11.90;;;8.35;;
21743;SDS011;11034;48.556;9.342;2022-11-27T10:05:02;14.65;;;8.98;;
21743;SDS011;11034;48.556;9.342;2022-11-27T10:07:40;13.00;;;9.07;;
21743;SDS011;11034;48.556;9.342;2022-11-27T10:10:23;15.95;;;9.70;;
21743;SDS011;11034;48.556;9.342;2022-11-27T10:13:03;18.23;;;11.50;;
21743;SDS011;11034;48.556;9.342;2022-11-27T10:15:42;11.40;;;8.38;;
21743;SDS011;11034;48.556;9.342;2022-11-27T10:18:17;12.82;;;8.57;;
21743;SDS011;11034;48.556;9.342;2022-11-27T10:20:54;11.77;;;8.75;;
21743;SDS011;11034;48.556;9.342;2022-11-27T10:23:26;11.40;;;7.90;;
21743;SDS011;11034;48.556;9.342;2022-11-27T10:26:13;8.23;;;4.75;;
21743;SDS011;11034;48.556;9.342;2022-11-27T10:28:48;2.85;;;2.50;;
21743;SDS011;11034;48.556;9.342;2022-11-27T10:31:27;6.00;;;3.17;;
21743;SDS011;11034;48.556;9.342;2022-11-27T10:34:02;13.50;;;8.30;;
21743;SDS011;11034;48.556;9.342;2022-11-27T10:36:35;5.03;;;3.70;;
21743;SDS011;11034;48.556;9.342;2022-11-27T10:39:06;7.35;;;5.88;;
21743;SDS011;11034;48.556;9.342;2022-11-27T10:41:43;10.82;;;6.97;;
21743;SDS011;11034;48.556;9.342;2022-11-27T10:44:24;4.95;;;3.80;;
21743;SDS011;11034;48.556;9.342;2022-11-27T10:46:56;18.20;;;9.77;;
21743;SDS011;11034;48.556;9.342;2022-11-27T10:49:27;4.60;;;2.47;;
21743;SDS011;11034;48.556;9.342;2022-11-27T10:51:56;2.35;;;1.67;;
21743;SDS011;11034;48.556;9.342;2022-11-27T10:54:25;2.83;;;1.75;;
21743;SDS011;11034;48.556;9.342;2022-11-27T10:56:59;1.60;;;1.38;;
21743;SDS011;11034;48.556;9.342;2022-11-27T10:59:36;1.98;;;1.17;;
21743;SDS011;11034;48.556;9.342;2022-11-27T11:02:23;6.22;;;3.33;;
21743;SDS011;11034;48.556;9.342;2022-11-27T11:04:53;3.15;;;2.38;;
21743;SDS011;11034;48.556;9.342;2022-11-27T11:07:41;12.40;;;8.07;;
21743;SDS011;11034;48.556;9.342;2022-11-27T11:10:21;15.90;;;10.32;;
21743;SDS011;11034;48.556;9.342;2022-11-27T11:13:03;16.85;;;10.90;;
21743;SDS011;11034;48.556;9.342;2022-11-27T11:15:46;17.40;;;10.10;;
21743;SDS011;11034;48.556;9.342;2022-11-27T11:18:17;19.92;;;12.98;;
21743;SDS011;11034;48.556;9.342;2022-11-27T11:20:46;16.42;;;10.77;;
21743;SDS011;11034;48.556;9.342;2022-11-27T11:23:20;16.38;;;11.05;;
21743;SDS011;11034;48.556;9.342;2022-11-27T11:25:52;15.85;;;10.15;;
21743;SDS011;11034;48.556;9.342;2022-11-27T11:28:23;15.75;;;10.43;;
21743;SDS011;11034;48.556;9.342;2022-11-27T11:30:55;13.43;;;9.50;;
21743;SDS011;11034;48.556;9.342;2022-11-27T11:33:26;12.82;;;9.60;;
21743;SDS011;11034;48.556;9.342;2022-11-27T11:35:57;14.07;;;9.32;;
21743;SDS011;11034;48.556;9.342;2022-11-27T11:38:33;11.93;;;8.77;;
21743;SDS011;11034;48.556;9.342;2022-11-27T11:41:03;14.45;;;9.70;;
21743;SDS011;11034;48.556;9.342;2022-11-27T11:43:32;8.60;;;6.30;;
21743;SDS011;11034;48.556;9.342;2022-11-27T11:46:04;12.60;;;9.25;;
21743;SDS011;11034;48.556;9.342;2022-11-27T11:48:34;13.68;;;9.82;;
21743;SDS011;11034;48.556;9.342;2022-11-27T11:51:07;11.15;;;8.40;;
21743;SDS011;11034;48.556;9.342;2022-11-27T11:53:40;12.23;;;7.22;;
21743;SDS011;11034;48.556;9.342;2022-11-27T11:56:16;7.53;;;5.35;;
21743;SDS011;11034;48.556;9.342;2022-11-27T11:58:55;10.30;;;5.68;;
21743;SDS011;11034;48.556;9.342;2022-11-27T12:01:29;13.73;;;6.60;;
21743;SDS011;11034;48.556;9.342;2022-11-27T12:04:14;6.65;;;3.83;;
21743;SDS011;11034;48.556;9.342;2022-11-27T12:07:09;15.07;;;9.88;;
21743;SDS011;11034;48.556;9.342;2022-11-27T12:09:51;9.95;;;7.95;;
21743;SDS011;11034;48.556;9.342;2022-11-27T12:12:32;9.77;;;7.70;;
21743;SDS011;11034;48.556;9.342;2022-11-27T12:15:14;13.80;;;8.18;;
21743;SDS011;11034;48.556;9.342;2022-11-27T12:17:53;20.98;;;9.13;;
21743;SDS011;11034;48.556;9.342;2022-11-27T12:20:32;9.27;;;6.95;;
21743;SDS011;11034;48.556;9.342;2022-11-27T12:26:16;7.93;;;6.15;;
21743;SDS011;11034;48.556;9.342;2022-11-27T12:29:08;8.75;;;6.28;;
21743;SDS011;11034;48.556;9.342;2022-11-27T12:32:06;4.68;;;3.00;;
21743;SDS011;11034;48.556;9.342;2022-11-27T12:34:52;1.70;;;1.23;;
21743;SDS011;11034;48.556;9.342;2022-11-27T12:37:33;2.90;;;1.90;;
21743;SDS011;11034;48.556;9.342;2022-11-27T12:40:21;3.05;;;1.90;;
21743;SDS011;11034;48.556;9.342;2022-11-27T12:43:11;2.15;;;1.65;;
21743;SDS011;11034;48.556;9.342;2022-11-27T12:45:46;0.98;;;0.70;;
21743;SDS011;11034;48.556;9.342;2022-11-27T12:48:18;2.50;;;1.83;;
21743;SDS011;11034;48.556;9.342;2022-11-27T12:50:54;2.15;;;1.23;;
21743;SDS011;11034;48.556;9.342;2022-11-27T12:53:28;1.52;;;1.38;;
21743;SDS011;11034;48.556;9.342;2022-11-27T12:56:03;2.13;;;1.30;;
21743;SDS011;11034;48.556;9.342;2022-11-27T12:58:36;2.85;;;1.65;;
21743;SDS011;11034;48.556;9.342;2022-11-27T13:01:08;1.95;;;1.23;;
21743;SDS011;11034;48.556;9.342;2022-11-27T13:03:42;1.77;;;1.15;;
21743;SDS011;11034;48.556;9.342;2022-11-27T13:06:36;2.22;;;1.20;;
21743;SDS011;11034;48.556;9.342;2022-11-27T13:09:20;2.30;;;1.45;;
21743;SDS011;11034;48.556;9.342;2022-11-27T13:11:53;2.92;;;1.70;;
21743;SDS011;11034;48.556;9.342;2022-11-27T13:14:23;3.40;;;1.60;;
21743;SDS011;11034;48.556;9.342;2022-11-27T13:16:53;2.10;;;1.30;;
21743;SDS011;11034;48.556;9.342;2022-11-27T13:19:26;2.80;;;1.45;;
21743;SDS011;11034;48.556;9.342;2022-11-27T13:21:59;8.73;;;5.63;;
21743;SDS011;11034;48.556;9.342;2022-11-27T13:24:31;5.10;;;3.80;;
21743;SDS011;11034;48.556;9.342;2022-11-27T13:27:00;6.35;;;4.22;;
21743;SDS011;11034;48.556;9.342;2022-11-27T13:29:32;4.68;;;3.30;;
21743;SDS011;11034;48.556;9.342;2022-11-27T13:32:06;7.32;;;4.00;;
21743;SDS011;11034;48.556;9.342;2022-11-27T13:34:40;5.50;;;4.22;;
21743;SDS011;11034;48.556;9.342;2022-11-27T13:37:22;9.13;;;5.35;;
21743;SDS011;11034;48.556;9.342;2022-11-27T13:39:57;6.82;;;5.13;;
21743;SDS011;11034;48.556;9.342;2022-11-27T13:42:29;5.57;;;4.03;;
21743;SDS011;11034;48.556;9.342;2022-11-27T13:44:59;6.30;;;4.00;;
21743;SDS011;11034;48.556;9.342;2022-11-27T13:47:34;5.55;;;3.65;;
21743;SDS011;11034;48.556;9.342;2022-11-27T13:50:07;3.03;;;2.00;;
21743;SDS011;11034;48.556;9.342;2022-11-27T13:52:49;2.42;;;2.00;;
21743;SDS011;11034;48.556;9.342;2022-11-27T13:55:24;3.10;;;2.25;;
21743;SDS011;11034;48.556;9.342;2022-11-27T13:57:54;4.13;;;2.80;;
21743;SDS011;11034;48.556;9.342;2022-11-27T14:00:33;3.38;;;2.58;;
21743;SDS011;11034;48.556;9.342;2022-11-27T14:03:03;3.03;;;1.90;;
21743;SDS011;11034;48.556;9.342;2022-11-27T14:05:33;2.97;;;1.88;;
21743;SDS011;11034;48.556;9.342;2022-11-27T14:08:16;4.10;;;2.22;;
21743;SDS011;11034;48.556;9.342;2022-11-27T14:10:50;3.25;;;2.20;;
21743;SDS011;11034;48.556;9.342;2022-11-27T14:13:21;3.72;;;2.40;;
21743;SDS011;11034;48.556;9.342;2022-11-27T14:16:00;7.07;;;4.03;;
21743;SDS011;11034;48.556;9.342;2022-11-27T14:18:30;5.13;;;3.10;;
21743;SDS011;11034;48.556;9.342;2022-11-27T14:20:58;3.88;;;2.60;;
21743;SDS011;11034;48.556;9.342;2022-11-27T14:23:30;4.68;;;2.15;;
21743;SDS011;11034;48.556;9.342;2022-11-27T14:26:01;4.00;;;2.58;;
21743;SDS011;11034;48.556;9.342;2022-11-27T14:28:35;2.55;;;1.70;;
21743;SDS011;11034;48.556;9.342;2022-11-27T14:31:04;3.00;;;2.42;;
21743;SDS011;11034;48.556;9.342;2022-11-27T14:33:33;3.90;;;2.47;;
21743;SDS011;11034;48.556;9.342;2022-11-27T14:36:33;3.30;;;2.40;;
21743;SDS011;11034;48.556;9.342;2022-11-27T14:39:02;4.00;;;2.63;;
21743;SDS011;11034;48.556;9.342;2022-11-27T14:41:31;3.33;;;2.50;;
21743;SDS011;11034;48.556;9.342;2022-11-27T14:43:59;4.68;;;3.40;;
21743;SDS011;11034;48.556;9.342;2022-11-27T14:46:28;7.13;;;4.72;;
21743;SDS011;11034;48.556;9.342;2022-11-27T14:48:58;4.03;;;2.97;;
21743;SDS011;11034;48.556;9.342;2022-11-27T14:51:27;6.13;;;3.97;;
21743;SDS011;11034;48.556;9.342;2022-11-27T14:53:58;6.00;;;4.10;;
21743;SDS011;11034;48.556;9.342;2022-11-27T14:56:30;7.07;;;4.53;;
21743;SDS011;11034;48.556;9.342;2022-11-27T14:59:00;4.70;;;3.40;;
21743;SDS011;11034;48.556;9.342;2022-11-27T15:01:30;4.88;;;3.13;;
21743;SDS011;11034;48.556;9.342;2022-11-27T15:04:03;3.75;;;3.17;;
21743;SDS011;11034;48.556;9.342;2022-11-27T15:06:34;5.80;;;3.17;;
21743;SDS011;11034;48.556;9.342;2022-11-27T15:09:05;5.50;;;3.20;;
21743;SDS011;11034;48.556;9.342;2022-11-27T15:11:59;4.55;;;3.20;;